createdAt,value
2022-08-17T00:00:43.901Z,21.80
2022-08-17T00:03:19.246Z,21.81
2022-08-17T00:05:50.771Z,21.82
2022-08-17T00:08:23.833Z,21.83
2022-08-17T00:10:54.242Z,21.89
2022-08-17T00:13:26.100Z,21.95
2022-08-17T00:15:58.819Z,22.02
2022-08-17T00:19:05.801Z,22.07
2022-08-17T00:21:23.829Z,22.11
2022-08-17T00:23:55.244Z,22.13
2022-08-17T00:26:43.507Z,22.12
2022-08-17T00:29:19.558Z,22.09
2022-08-17T00:31:55.338Z,22.07
2022-08-17T00:34:25.683Z,22.09
2022-08-17T00:36:56.900Z,22.10
2022-08-17T00:39:25.786Z,22.13
2022-08-17T00:41:54.734Z,22.12
2022-08-17T00:44:31.262Z,22.11
2022-08-17T00:47:00.287Z,22.13
2022-08-17T00:49:31.425Z,22.12
2022-08-17T00:52:19.081Z,22.10
2022-08-17T00:54:51.835Z,22.11
2022-08-17T00:57:24.544Z,22.16
2022-08-17T01:00:03.165Z,22.26
2022-08-17T01:02:42.864Z,22.27
2022-08-17T01:05:28.963Z,22.24
2022-08-17T01:08:03.348Z,22.22
2022-08-17T01:10:58.765Z,22.16
2022-08-17T01:13:40.175Z,22.12
2022-08-17T01:16:17.211Z,22.08
2022-08-17T01:18:50.125Z,22.07
2022-08-17T01:21:28.030Z,22.06
2022-08-17T01:23:59.088Z,22.04
2022-08-17T01:26:28.526Z,22.03
2022-08-17T01:28:57.852Z,21.99
2022-08-17T01:31:31.875Z,21.97
2022-08-17T01:34:03.570Z,21.95
2022-08-17T01:36:33.376Z,21.93
2022-08-17T01:39:04.115Z,21.92
2022-08-17T01:41:33.307Z,21.91
2022-08-17T01:44:05.336Z,21.92
2022-08-17T01:46:38.691Z,21.91
2022-08-17T01:49:09.640Z,21.89
2022-08-17T01:51:38.774Z,21.83
2022-08-17T01:54:12.693Z,21.77
2022-08-17T01:56:44.022Z,21.73
2022-08-17T01:59:17.194Z,21.69
2022-08-17T02:01:46.508Z,21.65
2022-08-17T02:04:16.136Z,21.62
2022-08-17T02:06:52.799Z,21.59
2022-08-17T02:09:29.597Z,21.54
2022-08-17T02:12:37.146Z,21.46
2022-08-17T02:14:50.537Z,21.39
2022-08-17T02:17:19.731Z,21.34
2022-08-17T02:19:48.727Z,21.26
2022-08-17T02:22:18.409Z,21.19
2022-08-17T02:24:59.635Z,21.14
2022-08-17T02:27:30.825Z,21.11
2022-08-17T02:29:59.761Z,21.07
2022-08-17T02:32:29.539Z,21.03
2022-08-17T02:34:58.958Z,21.00
2022-08-17T02:37:28.755Z,20.96
2022-08-17T02:40:00.088Z,20.93
2022-08-17T02:42:33.926Z,20.91
2022-08-17T02:45:03.369Z,20.88
2022-08-17T02:47:32.458Z,20.84
2022-08-17T02:50:01.655Z,20.77
2022-08-17T02:52:42.959Z,20.70
2022-08-17T02:55:18.286Z,20.65
2022-08-17T02:57:47.676Z,20.59
2022-08-17T03:00:19.732Z,20.17
2022-08-17T03:02:49.273Z,20.42
2022-08-17T03:05:22.145Z,20.36
2022-08-17T03:07:51.703Z,20.29
2022-08-17T03:10:22.676Z,20.23
2022-08-17T03:12:52.467Z,20.17
2022-08-17T03:15:25.065Z,20.13
2022-08-17T03:17:54.859Z,20.11
2022-08-17T03:20:24.867Z,20.11
2022-08-17T03:23:02.028Z,20.11
2022-08-17T03:25:35.452Z,20.07
2022-08-17T03:28:05.197Z,20.00
2022-08-17T03:30:34.978Z,19.91
2022-08-17T03:33:06.098Z,19.85
2022-08-17T03:35:37.676Z,19.79
2022-08-17T03:38:07.719Z,19.75
2022-08-17T03:40:57.030Z,19.74
2022-08-17T03:43:29.377Z,19.72
2022-08-17T03:46:33.981Z,19.66
2022-08-17T03:49:23.669Z,19.57
2022-08-17T03:52:10.241Z,19.55
2022-08-17T03:54:56.592Z,19.53
2022-08-17T03:57:27.623Z,19.52
2022-08-17T03:59:57.795Z,19.53
2022-08-17T04:02:29.922Z,19.52
2022-08-17T04:04:59.979Z,19.52
2022-08-17T04:07:31.621Z,19.51
2022-08-17T04:10:00.724Z,19.52
2022-08-17T04:12:43.186Z,19.51
2022-08-17T04:15:13.002Z,19.50
2022-08-17T04:17:44.260Z,19.52
2022-08-17T04:20:15.194Z,19.51
2022-08-17T04:22:58.373Z,19.52
2022-08-17T04:25:28.440Z,19.53
2022-08-17T04:27:59.682Z,19.57
2022-08-17T04:30:30.249Z,19.62
2022-08-17T04:33:06.143Z,19.65
2022-08-17T04:35:38.202Z,19.67
2022-08-17T04:38:08.055Z,19.73
2022-08-17T04:40:55.611Z,19.78
2022-08-17T04:43:28.211Z,19.85
2022-08-17T04:46:00.990Z,19.88
2022-08-17T04:48:37.082Z,19.93
2022-08-17T04:51:13.401Z,19.98
2022-08-17T04:53:45.306Z,20.05
2022-08-17T04:56:20.204Z,20.10
2022-08-17T04:58:57.463Z,20.18
2022-08-17T05:01:29.324Z,20.23
2022-08-17T05:04:02.375Z,20.31
2022-08-17T05:06:51.075Z,20.41
2022-08-17T05:09:20.540Z,20.51
2022-08-17T05:11:49.859Z,20.64
2022-08-17T05:14:20.314Z,20.79
2022-08-17T05:16:51.258Z,20.93
2022-08-17T05:19:20.469Z,21.07
2022-08-17T05:21:51.136Z,21.18
2022-08-17T05:24:41.250Z,21.30
2022-08-17T05:27:14.308Z,21.43
2022-08-17T05:29:49.543Z,21.57
2022-08-17T05:32:39.284Z,21.72
2022-08-17T05:35:09.882Z,21.90
2022-08-17T05:37:39.082Z,22.02
2022-08-17T05:40:12.109Z,22.16
2022-08-17T05:42:41.093Z,22.33
2022-08-17T05:45:13.200Z,22.53
2022-08-17T05:47:43.994Z,22.72
2022-08-17T05:50:25.763Z,22.88
2022-08-17T05:53:04.656Z,23.10
2022-08-17T05:55:42.391Z,23.39
2022-08-17T05:58:21.617Z,23.67
2022-08-17T06:01:02.798Z,23.98
2022-08-17T06:03:43.727Z,24.27
2022-08-17T06:06:31.211Z,24.47
2022-08-17T06:09:26.596Z,24.62
2022-08-17T06:12:14.205Z,24.82
2022-08-17T06:15:14.525Z,25.08
2022-08-17T06:17:45.739Z,25.34
2022-08-17T06:20:17.017Z,25.14
2022-08-17T06:22:49.926Z,25.69
2022-08-17T06:25:24.196Z,25.85
2022-08-17T06:27:59.795Z,26.03
2022-08-17T06:30:35.736Z,26.15
2022-08-17T06:33:27.310Z,26.27
2022-08-17T06:36:04.973Z,26.45
2022-08-17T06:38:50.866Z,26.58
2022-08-17T06:41:26.128Z,26.59
2022-08-17T06:44:43.723Z,26.71
2022-08-17T06:47:09.444Z,26.99
2022-08-17T06:49:50.569Z,27.06
2022-08-17T06:52:45.380Z,27.06
2022-08-17T06:55:22.464Z,26.97
2022-08-17T06:57:56.716Z,26.91
2022-08-17T07:00:29.807Z,26.80
2022-08-17T07:03:06.864Z,26.66
2022-08-17T07:05:51.621Z,26.45
2022-08-17T07:08:35.052Z,26.33
2022-08-17T07:11:09.886Z,26.41
2022-08-17T07:13:49.319Z,26.35
2022-08-17T07:16:27.582Z,26.39
2022-08-17T07:18:59.108Z,26.40
2022-08-17T07:21:41.092Z,26.45
2022-08-17T07:24:30.293Z,26.48
2022-08-17T07:27:08.163Z,26.51
2022-08-17T07:29:41.749Z,26.56
2022-08-17T07:32:13.639Z,26.66
2022-08-17T07:35:11.134Z,26.77
2022-08-17T07:37:44.547Z,26.77
2022-08-17T07:40:27.124Z,26.70
2022-08-17T07:43:05.121Z,26.69
2022-08-17T07:45:54.290Z,26.08
2022-08-17T07:48:26.145Z,26.63
2022-08-17T07:50:55.165Z,26.65
2022-08-17T07:53:27.032Z,26.75
2022-08-17T07:55:56.236Z,26.84
2022-08-17T07:58:26.618Z,27.00
2022-08-17T08:01:08.047Z,27.27
2022-08-17T08:03:43.803Z,27.51
2022-08-17T08:06:23.327Z,27.72
2022-08-17T08:08:56.193Z,27.97
2022-08-17T08:11:33.435Z,28.36
2022-08-17T08:14:28.715Z,28.62
2022-08-17T08:17:01.864Z,28.80
2022-08-17T08:19:32.419Z,28.96
2022-08-17T08:22:12.245Z,28.50
2022-08-17T08:24:56.932Z,28.97
2022-08-17T08:27:43.529Z,28.89
2022-08-17T08:30:16.299Z,28.89
2022-08-17T08:33:04.227Z,28.82
2022-08-17T08:35:38.925Z,28.78
2022-08-17T08:38:16.617Z,28.79
2022-08-17T08:40:57.593Z,29.02
2022-08-17T08:43:39.351Z,29.22
2022-08-17T08:46:22.229Z,29.22
2022-08-17T08:49:39.038Z,29.18
2022-08-17T08:52:22.322Z,29.14
2022-08-17T08:54:58.570Z,29.16
2022-08-17T08:57:34.780Z,29.24
2022-08-17T09:00:15.988Z,29.35
2022-08-17T09:03:51.664Z,29.51
2022-08-17T09:06:38.937Z,29.67
2022-08-17T09:09:24.461Z,29.87
2022-08-17T09:12:06.560Z,30.15
2022-08-17T09:14:47.152Z,30.38
2022-08-17T09:17:20.848Z,30.53
2022-08-17T09:19:57.077Z,30.70
2022-08-17T09:22:42.846Z,30.72
2022-08-17T09:25:15.054Z,30.68
2022-08-17T09:28:00.768Z,30.56
2022-08-17T09:30:42.594Z,30.27
2022-08-17T09:33:17.097Z,30.23
2022-08-17T09:35:51.048Z,30.24
2022-08-17T09:38:32.198Z,30.20
2022-08-17T09:41:09.333Z,30.30
2022-08-17T09:43:50.622Z,30.42
2022-08-17T09:46:25.266Z,30.48
2022-08-17T09:49:11.645Z,30.52
2022-08-17T09:51:46.397Z,30.40
2022-08-17T09:54:38.762Z,30.43
2022-08-17T09:57:31.683Z,30.48
2022-08-17T10:00:16.974Z,30.58
2022-08-17T10:03:21.178Z,30.73
2022-08-17T10:05:57.243Z,30.87
2022-08-17T10:08:36.801Z,31.07
2022-08-17T10:11:19.901Z,31.46
2022-08-17T10:13:58.754Z,31.71
2022-08-17T10:16:37.636Z,31.99
2022-08-17T10:19:22.780Z,32.31
2022-08-17T10:22:34.653Z,32.42
2022-08-17T10:25:33.455Z,32.45
2022-08-17T10:28:20.114Z,32.64
2022-08-17T10:31:10.462Z,32.77
2022-08-17T10:34:11.599Z,33.01
2022-08-17T10:36:56.153Z,33.23
2022-08-17T10:39:34.528Z,33.49
2022-08-17T10:42:30.458Z,33.71
2022-08-17T10:45:19.570Z,33.90
2022-08-17T10:48:06.121Z,34.03
2022-08-17T10:50:58.921Z,34.15
2022-08-17T10:54:02.236Z,34.25
2022-08-17T10:56:51.743Z,34.05
2022-08-17T10:59:52.782Z,33.64
2022-08-17T11:02:31.532Z,33.96
2022-08-17T11:05:17.804Z,34.37
2022-08-17T11:08:21.548Z,34.59
2022-08-17T11:11:21.013Z,34.34
2022-08-17T11:14:09.142Z,34.53
2022-08-17T11:16:52.257Z,34.64
2022-08-17T11:19:55.300Z,34.73
2022-08-17T11:23:23.334Z,34.71
2022-08-17T11:29:09.725Z,35.25
2022-08-17T11:32:20.332Z,35.42
2022-08-17T11:35:14.291Z,35.70
2022-08-17T11:37:59.056Z,36.04
2022-08-17T11:40:47.695Z,36.20
2022-08-17T11:43:33.992Z,36.40
2022-08-17T11:46:23.805Z,36.57
2022-08-17T11:49:22.666Z,36.76
2022-08-17T11:52:15.468Z,36.45
2022-08-17T11:54:51.753Z,35.78
2022-08-17T11:57:54.670Z,35.33
2022-08-17T12:01:02.943Z,34.86
2022-08-17T12:04:15.124Z,34.21
2022-08-17T12:07:07.284Z,34.05
2022-08-17T12:09:48.107Z,33.84
2022-08-17T12:12:29.702Z,33.80
2022-08-17T12:15:11.737Z,33.74
2022-08-17T12:18:39.009Z,33.22
2022-08-17T12:21:47.793Z,33.19
2022-08-17T12:24:31.575Z,33.05
2022-08-17T12:27:13.256Z,33.36
2022-08-17T12:30:22.519Z,33.28
2022-08-17T12:38:32.702Z,33.43
2022-08-17T12:45:42.809Z,34.18
2022-08-17T12:48:14.367Z,34.18
2022-08-17T12:50:47.319Z,33.90
2022-08-17T12:53:19.762Z,33.47
2022-08-17T12:55:51.222Z,33.43
2022-08-17T12:58:24.583Z,33.25
2022-08-17T13:01:01.532Z,32.93
2022-08-17T13:03:39.714Z,32.89
2022-08-17T13:06:12.259Z,32.92
2022-08-17T13:08:44.945Z,32.85
2022-08-17T13:11:22.696Z,33.04
2022-08-17T13:13:55.517Z,33.14
2022-08-17T13:16:29.917Z,33.13
2022-08-17T13:19:11.103Z,33.36
2022-08-17T13:21:48.964Z,33.35
2022-08-17T13:24:21.468Z,33.65
2022-08-17T13:26:52.410Z,34.00
2022-08-17T13:29:25.837Z,34.18
2022-08-17T13:32:19.758Z,33.95
2022-08-17T13:35:12.068Z,33.47
2022-08-17T13:37:48.817Z,33.22
2022-08-17T13:40:33.063Z,32.94
2022-08-17T13:43:03.446Z,32.72
2022-08-17T13:45:39.019Z,32.68
2022-08-17T13:48:20.847Z,32.63
2022-08-17T13:51:04.997Z,32.69
2022-08-17T13:53:54.786Z,33.18
2022-08-17T13:56:38.850Z,33.76
2022-08-17T13:59:12.495Z,34.26
2022-08-17T14:01:44.139Z,34.42
2022-08-17T14:04:20.180Z,34.31
2022-08-17T14:06:55.147Z,34.18
2022-08-17T14:09:27.363Z,34.18
2022-08-17T14:11:58.227Z,34.24
2022-08-17T14:14:29.343Z,34.21
2022-08-17T14:16:58.919Z,33.95
2022-08-17T14:19:29.256Z,33.72
2022-08-17T14:22:00.582Z,33.70
2022-08-17T14:24:31.876Z,33.96
2022-08-17T14:27:02.108Z,34.33
2022-08-17T14:29:33.275Z,34.66
2022-08-17T14:32:12.774Z,35.00
2022-08-17T14:34:43.064Z,35.17
2022-08-17T14:37:12.406Z,34.96
2022-08-17T14:39:41.361Z,34.74
2022-08-17T14:42:11.533Z,34.39
2022-08-17T14:44:41.014Z,33.86
2022-08-17T14:47:13.894Z,33.47
2022-08-17T14:49:47.524Z,33.31
2022-08-17T14:52:21.671Z,33.01
2022-08-17T14:54:51.347Z,32.84
2022-08-17T14:57:26.096Z,32.69
2022-08-17T15:00:03.447Z,32.65
2022-08-17T15:02:32.393Z,32.67
2022-08-17T15:05:06.141Z,32.75
2022-08-17T15:07:35.126Z,32.81
2022-08-17T15:10:04.577Z,32.89
2022-08-17T15:12:34.590Z,32.93
2022-08-17T15:15:04.610Z,32.89
2022-08-17T15:17:43.836Z,32.77
2022-08-17T15:20:20.809Z,32.69
2022-08-17T15:22:50.760Z,32.76
2022-08-17T15:25:22.427Z,32.73
2022-08-17T15:27:51.888Z,32.68
2022-08-17T15:30:51.849Z,32.66
2022-08-17T15:33:29.331Z,32.79
2022-08-17T15:36:02.132Z,32.94
2022-08-17T15:38:39.265Z,33.09
2022-08-17T15:41:09.283Z,33.03
2022-08-17T15:43:38.466Z,32.94
2022-08-17T15:46:12.149Z,32.82
2022-08-17T15:48:42.661Z,32.80
2022-08-17T15:51:15.949Z,32.86
2022-08-17T15:53:47.179Z,32.57
2022-08-17T15:56:16.605Z,32.36
2022-08-17T15:58:47.748Z,32.29
2022-08-17T16:01:51.788Z,32.31
2022-08-17T16:04:30.528Z,32.37
2022-08-17T16:07:00.488Z,32.56
2022-08-17T16:09:29.607Z,32.62
2022-08-17T16:11:58.624Z,32.69
2022-08-17T16:14:33.591Z,32.64
2022-08-17T16:17:04.805Z,32.53
2022-08-17T16:19:54.172Z,32.46
2022-08-17T16:22:33.692Z,32.37
2022-08-17T16:25:06.103Z,32.17
2022-08-17T16:27:35.154Z,32.11
2022-08-17T16:30:04.930Z,32.04
2022-08-17T16:32:33.990Z,31.96
2022-08-17T16:35:04.262Z,31.84
2022-08-17T16:37:35.056Z,31.69
2022-08-17T16:40:07.244Z,31.59
2022-08-17T16:42:38.723Z,31.50
2022-08-17T16:45:11.680Z,31.37
2022-08-17T16:47:41.891Z,31.28
2022-08-17T16:50:12.764Z,31.22
2022-08-17T16:52:44.408Z,31.22
2022-08-17T16:55:13.860Z,31.25
2022-08-17T16:57:50.412Z,31.35
2022-08-17T17:00:21.168Z,31.43
2022-08-17T17:02:50.877Z,31.49
2022-08-17T17:05:34.274Z,31.58
2022-08-17T17:08:10.107Z,31.69
2022-08-17T17:10:44.516Z,31.65
2022-08-17T17:13:19.175Z,31.49
2022-08-17T17:15:55.770Z,31.27
2022-08-17T17:18:33.047Z,31.10
2022-08-17T17:21:03.147Z,30.43
2022-08-17T17:23:42.327Z,30.72
2022-08-17T17:26:25.237Z,30.49
2022-08-17T17:29:08.369Z,30.29
2022-08-17T17:31:46.231Z,30.13
2022-08-17T17:34:17.473Z,29.96
2022-08-17T17:36:51.191Z,29.85
2022-08-17T17:39:31.724Z,29.83
2022-08-17T17:42:07.861Z,29.88
2022-08-17T17:44:41.887Z,29.88
2022-08-17T17:47:11.464Z,29.89
2022-08-17T17:49:45.002Z,29.78
2022-08-17T17:52:24.576Z,29.71
2022-08-17T17:55:13.146Z,29.57
2022-08-17T17:58:00.945Z,29.40
2022-08-17T18:00:38.320Z,29.25
2022-08-17T18:03:25.839Z,29.11
2022-08-17T18:06:15.020Z,28.92
2022-08-17T18:08:56.083Z,28.73
2022-08-17T18:12:08.779Z,28.58
2022-08-17T18:14:55.506Z,28.47
2022-08-17T18:17:24.524Z,28.35
2022-08-17T18:19:56.680Z,28.24
2022-08-17T18:22:26.454Z,28.20
2022-08-17T18:24:57.519Z,28.20
2022-08-17T18:27:34.998Z,28.20
2022-08-17T18:30:24.256Z,28.05
2022-08-17T18:32:53.469Z,27.88
2022-08-17T18:35:35.342Z,27.65
2022-08-17T18:38:22.601Z,27.45
2022-08-17T18:41:19.906Z,27.25
2022-08-17T18:44:02.389Z,27.10
2022-08-17T18:46:51.022Z,26.95
2022-08-17T18:49:29.483Z,26.93
2022-08-17T18:52:14.263Z,26.93
2022-08-17T18:55:00.590Z,26.94
2022-08-17T18:57:34.803Z,26.88
2022-08-17T19:00:13.539Z,26.89
2022-08-17T19:02:53.271Z,26.92
2022-08-17T19:05:35.013Z,26.82
2022-08-17T19:08:36.100Z,26.73
2022-08-17T19:11:11.260Z,26.36
2022-08-17T19:13:44.770Z,26.64
2022-08-17T19:16:22.598Z,26.66
2022-08-17T19:18:59.149Z,26.60
2022-08-17T19:21:36.378Z,26.56
2022-08-17T19:24:10.933Z,26.50
2022-08-17T19:26:54.772Z,26.45
2022-08-17T19:29:31.653Z,26.37
2022-08-17T19:32:05.463Z,26.32
2022-08-17T19:34:36.822Z,26.25
2022-08-17T19:37:13.744Z,26.21
2022-08-17T19:39:56.545Z,26.22
2022-08-17T19:42:40.552Z,26.23
2022-08-17T19:45:20.901Z,26.26
2022-08-17T19:48:03.106Z,26.37
2022-08-17T19:50:39.215Z,26.39
2022-08-17T19:53:19.002Z,26.40
2022-08-17T19:56:00.302Z,26.33
2022-08-17T19:58:44.793Z,26.29
2022-08-17T20:07:05.011Z,26.22
2022-08-17T20:09:47.445Z,25.99
2022-08-17T20:12:19.116Z,25.87
2022-08-17T20:14:55.845Z,25.73
2022-08-17T20:17:31.633Z,25.65
2022-08-17T20:20:08.582Z,25.61
2022-08-17T20:22:58.737Z,25.52
2022-08-17T20:25:37.033Z,25.46
2022-08-17T20:28:18.766Z,25.45
2022-08-17T20:30:52.351Z,25.41
2022-08-17T20:33:28.332Z,25.37
2022-08-17T20:36:24.828Z,25.01
2022-08-17T20:38:58.376Z,25.33
2022-08-17T20:41:29.046Z,25.28
2022-08-17T20:44:06.832Z,24.87
2022-08-17T20:46:58.207Z,25.31
2022-08-17T20:49:41.612Z,25.18
2022-08-17T20:52:15.619Z,25.15
2022-08-17T20:54:50.257Z,25.06
2022-08-17T20:57:47.847Z,24.96
2022-08-17T21:00:43.656Z,24.95
2022-08-17T21:03:51.185Z,24.96
2022-08-17T21:06:23.847Z,24.94
2022-08-17T21:08:58.749Z,25.06
2022-08-17T21:12:03.925Z,25.00
2022-08-17T21:14:58.218Z,24.92
2022-08-17T21:17:51.395Z,24.75
2022-08-17T21:20:43.724Z,24.66
2022-08-17T21:23:27.846Z,24.63
2022-08-17T21:26:10.125Z,24.57
2022-08-17T21:29:01.085Z,24.48
2022-08-17T21:31:36.112Z,24.42
2022-08-17T21:34:27.792Z,24.35
2022-08-17T21:37:24.121Z,24.33
2022-08-17T21:39:55.669Z,24.31
2022-08-17T21:42:29.321Z,24.25
2022-08-17T21:45:12.608Z,24.19
2022-08-17T21:47:45.381Z,24.11
2022-08-17T21:50:21.546Z,24.02
2022-08-17T21:52:54.302Z,23.90
2022-08-17T21:55:29.423Z,23.79
2022-08-17T21:58:14.753Z,23.70
2022-08-17T22:00:46.057Z,23.73
2022-08-17T22:03:26.271Z,23.67
2022-08-17T22:05:55.283Z,23.65
2022-08-17T22:08:26.225Z,23.67
2022-08-17T22:11:03.066Z,23.69
2022-08-17T22:13:32.438Z,23.63
2022-08-17T22:16:28.803Z,23.54
2022-08-17T22:19:01.675Z,23.46
2022-08-17T22:21:30.717Z,23.40
2022-08-17T22:24:05.071Z,23.31
2022-08-17T22:27:05.191Z,23.21
2022-08-17T22:29:56.856Z,23.08
2022-08-17T22:32:42.619Z,22.87
2022-08-17T22:35:33.904Z,22.96
2022-08-17T22:38:30.034Z,22.92
2022-08-17T22:41:27.941Z,22.86
2022-08-17T22:44:17.306Z,22.81
2022-08-17T22:46:57.195Z,22.74
2022-08-17T22:49:30.884Z,22.70
2022-08-17T22:52:31.571Z,22.66
2022-08-17T22:55:30.873Z,22.60
2022-08-17T22:58:17.777Z,22.51
2022-08-17T23:00:49.259Z,22.48
2022-08-17T23:03:22.300Z,22.45
2022-08-17T23:06:05.890Z,22.41
2022-08-17T23:08:37.624Z,22.41
2022-08-17T23:11:07.899Z,22.38
2022-08-17T23:13:38.694Z,22.35
2022-08-17T23:16:36.512Z,22.35
2022-08-17T23:19:15.521Z,22.36
2022-08-17T23:21:47.118Z,22.30
2022-08-17T23:24:22.643Z,22.23
2022-08-17T23:26:52.391Z,22.19
2022-08-17T23:29:21.674Z,22.15
2022-08-17T23:31:51.187Z,22.11
2022-08-17T23:34:20.691Z,22.06
2022-08-17T23:36:53.289Z,22.03
2022-08-17T23:39:28.016Z,21.37
2022-08-17T23:41:58.631Z,21.91
2022-08-17T23:44:28.878Z,21.84
2022-08-17T23:46:58.212Z,21.81
2022-08-17T23:49:27.243Z,21.82
2022-08-17T23:51:58.434Z,21.83
2022-08-17T23:54:30.706Z,21.79
2022-08-17T23:56:59.754Z,21.79
2022-08-17T23:59:29.352Z,21.83
